COMO2: Grand River, Commerce, OK

                                SHEF ID:       COMO2     Neosho River nr Commerce, OK
STATION TYPE:
Regulating: Stage = 15.00, Flow = 21598

PRECIP STAGE STAGE(2) RIV-FLOW BAT-LOAD
in ft ft cfs volt
Ccp-Rev Ccp-Rev Ccp-Rev Ccp-Rev Ccp-Rev
(America/Chicago)
04/30 00:00 0.00 7.34 ---- 8505 12.37
04/30 01:00 0.00 7.15 ---- 8202 12.36
04/30 02:00 0.00 6.96 ---- 7900 12.34
04/30 03:00 0.00 6.78 ---- 7613 12.31
04/30 04:00 0.00 6.61 ---- 7342 12.30
04/30 05:00 0.00 6.44 ---- 7072 12.27
04/30 06:00 0.00 6.28 ---- 6817 12.25
04/30 07:00 0.00 6.13 ---- 6578 12.23
04/30 08:00 0.00 5.98 ---- 6339 12.66
04/30 09:00 0.00 5.84 ---- 6116 13.22
04/30 10:00 0.00 5.71 ---- 5909 13.26
04/30 11:00 0.00 5.58 ---- 5702 13.23
04/30 12:00 0.00 5.47 ---- 5527 13.05
04/30 13:00 0.00 5.36 ---- 5352 12.98
04/30 14:00 0.00 5.26 ---- 5192 12.90
04/30 15:00 0.00 5.17 ---- 5049 12.83
04/30 16:00 0.00 5.10 ---- 4937 12.82
04/30 17:00 0.00 5.03 ---- 4826 12.90
04/30 18:00 0.00 4.97 ---- 4704 12.94
04/30 19:00 0.00 4.91 ---- 4556 12.89
04/30 20:00 0.00 4.87 ---- 4457 12.72
04/30 21:00 0.00 4.83 ---- 4359 12.51
04/30 22:00 0.00 4.80 ---- 4285 12.42
04/30 23:00 0.00 4.77 ---- 4211 12.38
Data processed at Fri 01May2026 04:36 GMT

NOTICE: If you are parsing this page

Please convert to using our Data API. Starting early 2026 we will be migrating to: https://water.usace.army.mil with modern pages rendered in JavaScript. When this migration completes you will no longer be able to scrape this page! CWMSDataAPI (CDA)

Timeseries IDs (TSIDs)

TSIDs used from left to right in the data table
COMM.Precip-Inc.Total.1Hour.1Hour.Ccp-Rev
COMM.Stage.Inst.1Hour.0.Ccp-Rev
COMM.Stage-Alt.Inst.1Hour.0.Ccp-Rev
COMM.Flow.Inst.1Hour.0.Ccp-Rev
COMM.Volt-Battery Load.Inst.1Hour.0.Ccp-Rev

                            

All information presented herein is the property of the government of the United States of America and may be revised or deleted at any time without prior notice. Dissemination of this information without the expressed written consent of the Public Affairs Office, Tulsa District U.S. Army Corps of Engineers is strictly prohibited. These data are gathered electronically and, as presented, have NOT undergone any form of quality control. These data are NOT guaranteed to be valid or correct.